createdAt,value
2022-09-12T00:01:28.535Z,9.30
2022-09-12T00:04:01.367Z,9.30
2022-09-12T00:06:31.739Z,9.20
2022-09-12T00:09:05.364Z,9.30
2022-09-12T00:11:35.132Z,9.30
2022-09-12T00:14:03.748Z,9.20
2022-09-12T00:16:33.637Z,9.20
2022-09-12T00:19:02.053Z,9.20
2022-09-12T00:21:30.339Z,9.20
2022-09-12T00:23:57.924Z,9.30
2022-09-12T00:26:26.015Z,9.30
2022-09-12T00:28:53.732Z,9.30
2022-09-12T00:31:26.859Z,9.20
2022-09-12T00:33:59.163Z,9.20
2022-09-12T00:36:28.095Z,9.30
2022-09-12T00:38:56.640Z,9.20
2022-09-12T00:41:24.310Z,9.20
2022-09-12T00:44:21.409Z,9.20
2022-09-12T00:46:59.114Z,9.20
2022-09-12T00:49:47.300Z,9.30
2022-09-12T00:52:37.381Z,9.20
2022-09-12T00:55:14.319Z,9.20
2022-09-12T00:57:56.635Z,9.10
2022-09-12T01:00:27.339Z,9.10
2022-09-12T01:03:01.357Z,9.00
2022-09-12T01:05:32.015Z,9.20
2022-09-12T01:08:02.871Z,9.10
2022-09-12T01:10:31.200Z,9.20
2022-09-12T01:12:59.637Z,9.20
2022-09-12T01:15:30.808Z,9.20
2022-09-12T01:18:11.957Z,9.20
2022-09-12T01:21:16.533Z,9.20
2022-09-12T01:23:50.285Z,9.10
2022-09-12T01:26:35.963Z,9.10
2022-09-12T01:29:48.686Z,9.20
2022-09-12T01:32:39.674Z,9.20
2022-09-12T01:35:33.615Z,9.20
2022-09-12T01:38:25.858Z,9.20
2022-09-12T01:41:17.698Z,9.20
2022-09-12T01:43:52.376Z,9.10
2022-09-12T01:46:28.373Z,9.20
2022-09-12T01:49:09.654Z,9.10
2022-09-12T01:52:01.659Z,9.10
2022-09-12T01:55:17.257Z,9.10
2022-09-12T01:58:08.121Z,9.20
2022-09-12T02:00:44.200Z,9.10
2022-09-12T02:03:17.583Z,9.00
2022-09-12T02:06:02.682Z,9.00
2022-09-12T02:08:38.531Z,9.10
2022-09-12T02:11:12.408Z,9.10
2022-09-12T02:14:01.815Z,9.10
2022-09-12T02:16:41.258Z,9.00
2022-09-12T02:19:21.548Z,9.10
2022-09-12T02:24:43.971Z,9.20
2022-09-12T02:27:24.106Z,9.00
2022-09-12T02:29:52.094Z,9.10
2022-09-12T02:32:28.276Z,9.20
2022-09-12T02:35:07.615Z,9.10
2022-09-12T02:37:50.262Z,9.10
2022-09-12T02:40:19.085Z,9.10
2022-09-12T02:42:46.605Z,9.20
2022-09-12T02:45:14.421Z,9.10
2022-09-12T02:47:50.007Z,9.10
2022-09-12T02:50:17.971Z,9.10
2022-09-12T02:52:46.742Z,9.10
2022-09-12T02:55:15.063Z,9.10
2022-09-12T02:57:42.733Z,9.10
2022-09-12T03:00:10.944Z,9.10
2022-09-12T03:02:57.049Z,9.10
2022-09-12T03:05:40.536Z,9.10
2022-09-12T03:08:15.445Z,9.10
2022-09-12T03:11:19.008Z,9.10
2022-09-12T03:14:16.407Z,9.00
2022-09-12T03:17:08.446Z,9.10
2022-09-12T03:19:56.241Z,9.20
2022-09-12T03:22:59.892Z,9.20
2022-09-12T03:25:41.147Z,9.10
2022-09-12T03:28:18.207Z,9.20
2022-09-12T03:30:48.845Z,9.20
2022-09-12T03:33:19.233Z,9.10
2022-09-12T03:35:47.863Z,9.10
2022-09-12T03:38:16.576Z,9.20
2022-09-12T03:40:44.311Z,9.20
2022-09-12T03:43:11.877Z,9.10
2022-09-12T03:45:39.831Z,9.00
2022-09-12T03:48:07.991Z,9.00
2022-09-12T03:50:35.474Z,9.00
2022-09-12T03:53:03.728Z,8.90
2022-09-12T03:55:31.349Z,9.00
2022-09-12T03:57:58.904Z,9.00
2022-09-12T04:00:26.329Z,9.00
2022-09-12T04:02:56.314Z,9.10
2022-09-12T04:05:25.532Z,9.10
2022-09-12T04:07:53.254Z,9.20
2022-09-12T04:10:20.788Z,9.00
2022-09-12T04:12:48.373Z,9.10
2022-09-12T04:15:16.048Z,9.10
2022-09-12T04:17:43.523Z,9.00
2022-09-12T04:20:11.369Z,9.00
2022-09-12T04:22:39.008Z,9.00
2022-09-12T04:25:07.730Z,9.00
2022-09-12T04:27:35.393Z,9.00
2022-09-12T04:30:03.056Z,9.10
2022-09-12T04:32:31.823Z,9.00
2022-09-12T04:34:59.342Z,9.00
2022-09-12T04:37:27.193Z,9.00
2022-09-12T04:39:58.105Z,9.00
2022-09-12T04:42:25.866Z,9.10
2022-09-12T04:44:53.331Z,9.10
2022-09-12T04:47:21.052Z,9.10
2022-09-12T04:49:51.334Z,9.20
2022-09-12T04:52:18.864Z,9.10
2022-09-12T04:54:46.366Z,9.10
2022-09-12T04:57:13.931Z,9.10
2022-09-12T04:59:41.528Z,9.10
2022-09-12T05:02:09.190Z,9.00
2022-09-12T05:04:36.790Z,9.00
2022-09-12T05:07:04.436Z,9.00
2022-09-12T05:09:32.185Z,9.10
2022-09-12T05:12:04.573Z,9.00
2022-09-12T05:14:33.294Z,9.10
2022-09-12T05:17:02.062Z,9.10
2022-09-12T05:19:31.186Z,9.10
2022-09-12T05:21:59.421Z,9.10
2022-09-12T05:24:27.078Z,9.00
2022-09-12T05:26:54.481Z,9.00
2022-09-12T05:29:22.274Z,9.10
2022-09-12T05:31:52.433Z,9.10
2022-09-12T05:34:21.240Z,9.00
2022-09-12T05:36:49.357Z,9.10
2022-09-12T05:39:20.554Z,9.10
2022-09-12T05:41:48.732Z,9.10
2022-09-12T05:44:16.276Z,9.10
2022-09-12T05:46:45.770Z,9.20
2022-09-12T05:49:14.787Z,9.20
2022-09-12T05:51:45.413Z,9.20
2022-09-12T05:54:15.680Z,9.10
2022-09-12T05:56:44.760Z,9.10
2022-09-12T05:59:15.319Z,9.10
2022-09-12T06:01:43.767Z,9.00
2022-09-12T06:04:12.298Z,9.10
2022-09-12T06:06:45.517Z,9.00
2022-09-12T06:09:15.867Z,9.00
2022-09-12T06:11:44.624Z,9.10
2022-09-12T06:14:14.163Z,9.10
2022-09-12T06:16:41.925Z,9.10
2022-09-12T06:19:15.527Z,9.10
2022-09-12T06:21:43.118Z,9.00
2022-09-12T06:24:10.881Z,9.00
2022-09-12T06:26:38.839Z,9.00
2022-09-12T06:29:06.327Z,9.10
2022-09-12T06:31:36.558Z,9.00
2022-09-12T06:34:07.021Z,9.00
2022-09-12T06:36:38.929Z,9.10
2022-09-12T06:39:10.391Z,9.20
2022-09-12T06:41:42.966Z,9.10
2022-09-12T06:44:20.297Z,9.10
2022-09-12T06:46:48.527Z,9.10
2022-09-12T06:49:17.886Z,9.20
2022-09-12T06:51:45.689Z,9.10
2022-09-12T06:54:14.541Z,9.10
2022-09-12T06:56:42.395Z,9.10
2022-09-12T06:59:09.934Z,9.10
2022-09-12T07:01:37.763Z,9.20
2022-09-12T07:04:05.533Z,9.20
2022-09-12T07:06:38.663Z,9.20
2022-09-12T07:09:09.171Z,9.20
2022-09-12T07:11:38.378Z,9.20
2022-09-12T07:14:07.483Z,9.30
2022-09-12T07:16:38.377Z,9.20
2022-09-12T07:19:07.586Z,9.20
2022-09-12T07:21:40.261Z,9.20
2022-09-12T07:24:10.441Z,9.30
2022-09-12T07:26:38.886Z,9.30
2022-09-12T07:29:32.743Z,9.30
2022-09-12T07:31:54.837Z,9.30
2022-09-12T07:34:22.374Z,9.30
2022-09-12T07:36:50.655Z,9.30
2022-09-12T07:39:20.212Z,9.30
2022-09-12T07:41:49.030Z,9.20
2022-09-12T07:44:16.514Z,9.20
2022-09-12T07:46:45.072Z,9.20
2022-09-12T07:49:12.855Z,9.20
2022-09-12T07:51:40.797Z,9.20
2022-09-12T07:54:09.549Z,9.20
2022-09-12T07:56:39.470Z,9.30
2022-09-12T07:59:09.819Z,9.20
2022-09-12T08:01:37.538Z,9.30
2022-09-12T08:04:05.449Z,9.30
2022-09-12T08:06:36.295Z,9.40
2022-09-12T08:09:04.888Z,9.40
2022-09-12T08:11:32.519Z,9.30
2022-09-12T08:14:02.003Z,9.40
2022-09-12T08:16:31.370Z,9.40
2022-09-12T08:19:01.096Z,9.40
2022-09-12T08:21:30.688Z,9.30
2022-09-12T08:24:04.054Z,9.40
2022-09-12T08:26:33.029Z,9.40
2022-09-12T08:29:01.329Z,9.40
2022-09-12T08:31:29.264Z,9.40
2022-09-12T08:33:58.087Z,9.40
2022-09-12T08:36:27.933Z,9.40
2022-09-12T08:38:59.972Z,9.40
2022-09-12T08:41:31.069Z,9.50
2022-09-12T08:44:17.020Z,9.50
2022-09-12T08:47:13.177Z,9.50
2022-09-12T08:50:08.522Z,9.50
2022-09-12T08:53:10.794Z,9.50
2022-09-12T08:55:44.826Z,9.50
2022-09-12T08:58:17.345Z,9.60
2022-09-12T09:01:05.118Z,9.60
2022-09-12T09:03:52.873Z,9.60
2022-09-12T09:06:45.706Z,9.60
2022-09-12T09:09:45.320Z,9.60
2022-09-12T09:12:27.863Z,9.60
2022-09-12T09:15:09.560Z,9.70
2022-09-12T09:17:48.302Z,9.70
2022-09-12T09:20:41.811Z,9.70
2022-09-12T09:23:35.888Z,9.60
2022-09-12T09:26:15.522Z,9.70
2022-09-12T09:28:47.351Z,9.60
2022-09-12T09:31:22.672Z,9.60
2022-09-12T09:33:57.173Z,9.60
2022-09-12T09:37:01.831Z,9.60
2022-09-12T09:39:47.567Z,9.60
2022-09-12T09:42:28.302Z,9.60
2022-09-12T09:45:04.835Z,9.50
2022-09-12T09:47:32.871Z,9.60
2022-09-12T09:50:00.657Z,9.60
2022-09-12T09:52:31.195Z,9.60
2022-09-12T09:55:02.037Z,9.60
2022-09-12T09:57:35.614Z,9.50
2022-09-12T10:00:27.976Z,9.60
2022-09-12T10:03:13.819Z,9.60
2022-09-12T10:06:06.323Z,9.60
2022-09-12T10:08:36.941Z,9.60
2022-09-12T10:11:20.282Z,9.70
2022-09-12T10:13:57.204Z,9.70
2022-09-12T10:16:28.250Z,9.70
2022-09-12T10:18:58.117Z,9.70
2022-09-12T10:21:43.858Z,9.70
2022-09-12T10:24:23.286Z,9.70
2022-09-12T10:27:05.981Z,9.70
2022-09-12T10:29:39.622Z,9.70
2022-09-12T10:32:09.268Z,9.60
2022-09-12T10:34:42.434Z,9.70
2022-09-12T10:37:18.376Z,9.60
2022-09-12T10:39:54.827Z,9.70
2022-09-12T10:42:46.933Z,9.70
2022-09-12T10:45:30.474Z,9.70
2022-09-12T10:48:05.424Z,9.70
2022-09-12T10:50:42.020Z,9.70
2022-09-12T10:53:40.985Z,9.80
2022-09-12T10:56:13.444Z,9.80
2022-09-12T10:59:02.936Z,9.70
2022-09-12T11:01:36.171Z,9.80
2022-09-12T11:04:38.483Z,9.80
2022-09-12T11:07:17.903Z,9.80
2022-09-12T11:09:56.853Z,9.80
2022-09-12T11:12:33.014Z,9.80
2022-09-12T11:15:22.605Z,9.80
2022-09-12T11:18:10.368Z,9.80
2022-09-12T11:20:59.423Z,9.80
2022-09-12T11:23:45.582Z,9.80
2022-09-12T11:26:55.902Z,9.70
2022-09-12T11:30:02.193Z,9.80
2022-09-12T11:33:01.815Z,9.80
2022-09-12T11:35:30.449Z,9.80
2022-09-12T11:38:09.607Z,9.70
2022-09-12T11:40:46.225Z,9.70
2022-09-12T11:43:34.660Z,9.80
2022-09-12T11:46:28.299Z,9.80
2022-09-12T11:49:06.932Z,9.80
2022-09-12T11:52:00.251Z,9.80
2022-09-12T11:54:52.792Z,9.80
2022-09-12T11:57:31.006Z,9.80
2022-09-12T12:00:20.206Z,9.80
2022-09-12T12:03:14.205Z,9.70
2022-09-12T12:06:05.213Z,9.80
2022-09-12T12:08:44.664Z,9.80
2022-09-12T12:11:34.574Z,9.80
2022-09-12T12:14:06.412Z,9.90
2022-09-12T12:16:42.350Z,9.90
2022-09-12T12:19:16.089Z,9.90
2022-09-12T12:21:53.299Z,9.90
2022-09-12T12:24:24.382Z,9.90
2022-09-12T12:27:04.572Z,10.00
2022-09-12T12:29:33.036Z,9.90
2022-09-12T12:32:03.717Z,9.90
2022-09-12T12:34:33.977Z,10.00
2022-09-12T12:37:29.979Z,9.90
2022-09-12T12:40:18.329Z,9.90
2022-09-12T12:42:46.334Z,9.90
2022-09-12T12:45:30.027Z,9.90
2022-09-12T12:48:09.968Z,9.90
2022-09-12T12:50:37.686Z,9.90
2022-09-12T12:53:08.568Z,10.00
2022-09-12T12:55:46.167Z,10.00
2022-09-12T12:58:19.734Z,9.90
2022-09-12T13:00:47.926Z,9.90
2022-09-12T13:03:33.584Z,9.90
2022-09-12T13:06:08.793Z,9.80
2022-09-12T13:08:41.639Z,9.90
2022-09-12T13:11:12.229Z,9.90
2022-09-12T13:13:49.727Z,9.90
2022-09-12T13:16:53.851Z,9.90
2022-09-12T13:19:33.766Z,9.90
2022-09-12T13:22:07.174Z,9.90
2022-09-12T13:24:43.113Z,9.90
2022-09-12T13:27:19.962Z,10.00
2022-09-12T13:29:48.012Z,10.00
2022-09-12T13:32:17.114Z,9.90
2022-09-12T13:34:58.552Z,9.90
2022-09-12T13:37:49.690Z,9.90
2022-09-12T13:40:32.175Z,10.00
2022-09-12T13:43:17.578Z,10.00
2022-09-12T13:45:47.358Z,10.00
2022-09-12T13:48:22.306Z,10.00
2022-09-12T13:50:54.765Z,10.00
2022-09-12T13:53:26.382Z,9.90
2022-09-12T13:55:58.157Z,9.90
2022-09-12T13:58:28.999Z,9.90
2022-09-12T14:01:11.735Z,9.90
2022-09-12T14:04:15.481Z,9.80
2022-09-12T14:06:51.853Z,9.80
2022-09-12T14:09:28.996Z,9.80
2022-09-12T14:11:58.076Z,9.80
2022-09-12T14:14:31.886Z,9.70
2022-09-12T14:17:00.745Z,9.70
2022-09-12T14:19:29.430Z,9.70
2022-09-12T14:21:57.960Z,9.70
2022-09-12T14:24:26.570Z,9.70
2022-09-12T14:26:57.034Z,9.70
2022-09-12T14:29:27.657Z,9.80
2022-09-12T14:32:06.054Z,9.80
2022-09-12T14:34:33.620Z,9.90
2022-09-12T14:37:07.318Z,9.90
2022-09-12T14:39:42.980Z,10.00
2022-09-12T14:42:17.907Z,9.90
2022-09-12T14:45:04.298Z,9.90
2022-09-12T14:47:42.558Z,10.00
2022-09-12T14:50:26.441Z,9.90
2022-09-12T14:53:18.567Z,9.90
2022-09-12T14:56:05.918Z,9.90
2022-09-12T14:58:33.708Z,9.90
2022-09-12T15:01:02.679Z,9.90
2022-09-12T15:03:31.912Z,10.00
2022-09-12T15:06:01.298Z,10.00
2022-09-12T15:08:30.203Z,10.00
2022-09-12T15:10:58.923Z,10.00
2022-09-12T15:13:28.294Z,10.00
2022-09-12T15:15:57.699Z,10.00
2022-09-12T15:18:27.740Z,10.00
2022-09-12T15:21:05.709Z,10.00
2022-09-12T15:23:49.692Z,9.90
2022-09-12T15:26:27.770Z,9.90
2022-09-12T15:28:55.424Z,9.90
2022-09-12T15:31:28.909Z,10.00
2022-09-12T15:33:58.809Z,10.00
2022-09-12T15:36:27.149Z,10.00
2022-09-12T15:38:55.043Z,10.00
2022-09-12T15:41:37.814Z,10.00
2022-09-12T15:44:08.570Z,10.00
2022-09-12T15:46:36.328Z,10.00
2022-09-12T15:49:03.920Z,10.00
2022-09-12T15:51:31.426Z,9.90
2022-09-12T15:53:59.544Z,9.90
2022-09-12T15:56:27.296Z,9.90
2022-09-12T15:58:59.138Z,9.90
2022-09-12T16:01:29.199Z,9.90
2022-09-12T16:03:57.657Z,10.00
2022-09-12T16:06:25.331Z,9.90
2022-09-12T16:08:53.350Z,9.90
2022-09-12T16:11:27.094Z,10.00
2022-09-12T16:13:55.596Z,9.80
2022-09-12T16:16:23.162Z,9.80
2022-09-12T16:18:50.885Z,9.90
2022-09-12T16:21:18.700Z,9.80
2022-09-12T16:23:48.696Z,9.80
2022-09-12T16:26:16.976Z,9.80
2022-09-12T16:28:44.680Z,9.80
2022-09-12T16:31:14.192Z,9.80
2022-09-12T16:33:42.045Z,9.80
2022-09-12T16:36:15.354Z,9.80
2022-09-12T16:38:51.402Z,9.90
2022-09-12T16:41:21.429Z,9.80
2022-09-12T16:43:49.330Z,9.90
2022-09-12T16:46:19.777Z,9.90
2022-09-12T16:48:52.513Z,9.80
2022-09-12T16:51:26.335Z,9.80
2022-09-12T16:53:55.439Z,9.80
2022-09-12T16:56:23.783Z,9.80
2022-09-12T16:58:51.789Z,9.80
2022-09-12T17:01:22.100Z,9.80
2022-09-12T17:03:57.083Z,9.80
2022-09-12T17:06:25.783Z,9.80
2022-09-12T17:08:55.227Z,9.80
2022-09-12T17:11:27.168Z,9.80
2022-09-12T17:14:05.373Z,9.80
2022-09-12T17:16:40.275Z,9.80
2022-09-12T17:19:09.118Z,9.60
2022-09-12T17:21:36.697Z,9.70
2022-09-12T17:24:04.971Z,9.80
2022-09-12T17:26:32.458Z,9.70
2022-09-12T17:29:00.356Z,9.70
2022-09-12T17:31:28.210Z,9.80
2022-09-12T17:34:00.023Z,9.90
2022-09-12T17:36:29.190Z,9.80
2022-09-12T17:38:56.775Z,9.80
2022-09-12T17:41:26.795Z,9.80
2022-09-12T17:43:57.513Z,9.80
2022-09-12T17:46:30.005Z,9.80
2022-09-12T17:48:59.022Z,9.80
2022-09-12T17:51:30.823Z,9.80
2022-09-12T17:54:06.464Z,9.80
2022-09-12T17:56:36.137Z,9.70
2022-09-12T17:59:05.382Z,9.70
2022-09-12T18:01:51.651Z,9.80
2022-09-12T18:04:20.299Z,9.70
2022-09-12T18:06:49.053Z,9.60
2022-09-12T18:09:19.811Z,9.70
2022-09-12T18:11:48.418Z,9.60
2022-09-12T18:14:17.250Z,9.70
2022-09-12T18:16:46.100Z,9.80
2022-09-12T18:19:14.002Z,9.80
2022-09-12T18:21:41.964Z,9.80
2022-09-12T18:24:10.111Z,9.70
2022-09-12T18:26:38.079Z,9.70
2022-09-12T18:29:05.566Z,9.80
2022-09-12T18:31:33.418Z,9.80
2022-09-12T18:34:01.273Z,9.80
2022-09-12T18:36:34.227Z,9.80
2022-09-12T18:39:02.949Z,9.70
2022-09-12T18:41:30.859Z,9.80
2022-09-12T18:44:00.198Z,9.80
2022-09-12T18:46:30.231Z,9.70
2022-09-12T18:48:58.971Z,9.70
2022-09-12T18:51:36.083Z,9.70
2022-09-12T18:54:11.862Z,9.60
2022-09-12T18:56:41.484Z,9.60
2022-09-12T18:59:13.057Z,9.60
2022-09-12T19:01:41.251Z,9.60
2022-09-12T19:04:10.073Z,9.60
2022-09-12T19:06:42.957Z,9.60
2022-09-12T19:09:14.144Z,9.50
2022-09-12T19:11:48.980Z,9.60
2022-09-12T19:14:18.687Z,9.70
2022-09-12T19:16:46.464Z,9.70
2022-09-12T19:19:14.009Z,9.70
2022-09-12T19:21:42.331Z,9.70
2022-09-12T19:24:10.766Z,9.70
2022-09-12T19:26:39.546Z,9.70
2022-09-12T19:29:08.076Z,9.70
2022-09-12T19:31:35.953Z,9.70
2022-09-12T19:34:06.227Z,9.70
2022-09-12T19:36:44.989Z,9.70
2022-09-12T19:39:14.896Z,9.70
2022-09-12T19:41:46.921Z,9.80
2022-09-12T19:44:14.930Z,9.70
2022-09-12T19:46:42.793Z,9.80
2022-09-12T19:49:12.082Z,9.80
2022-09-12T19:51:39.562Z,9.80
2022-09-12T19:54:08.009Z,9.70
2022-09-12T19:56:35.523Z,9.70
2022-09-12T19:59:03.130Z,9.70
2022-09-12T20:01:30.641Z,9.80
2022-09-12T20:03:59.070Z,9.80
2022-09-12T20:06:27.599Z,9.80
2022-09-12T20:08:56.067Z,9.80
2022-09-12T20:11:24.676Z,9.80
2022-09-12T20:13:52.969Z,9.70
2022-09-12T20:16:25.833Z,9.70
2022-09-12T20:19:07.224Z,9.80
2022-09-12T20:21:36.901Z,9.70
2022-09-12T20:24:12.029Z,9.70
2022-09-12T20:26:40.199Z,9.70
2022-09-12T20:29:08.304Z,9.70
2022-09-12T20:31:37.885Z,9.70
2022-09-12T20:34:06.444Z,9.80
2022-09-12T20:36:34.640Z,9.80
2022-09-12T20:39:02.897Z,9.80
2022-09-12T20:41:33.143Z,9.80
2022-09-12T20:44:00.916Z,9.80
2022-09-12T20:46:29.355Z,9.80
2022-09-12T20:48:58.631Z,9.80
2022-09-12T20:51:26.977Z,9.80
2022-09-12T20:53:59.002Z,9.80
2022-09-12T20:56:28.019Z,9.70
2022-09-12T20:58:56.199Z,9.70
2022-09-12T21:01:24.963Z,9.70
2022-09-12T21:03:52.949Z,9.70
2022-09-12T21:06:22.050Z,9.80
2022-09-12T21:08:50.297Z,9.70
2022-09-12T21:11:19.374Z,9.80
2022-09-12T21:13:47.187Z,9.70
2022-09-12T21:16:18.749Z,9.80
2022-09-12T21:18:47.036Z,9.70
2022-09-12T21:21:16.085Z,9.70
2022-09-12T21:23:43.696Z,9.70
2022-09-12T21:26:12.292Z,9.60
2022-09-12T21:28:40.220Z,9.70
2022-09-12T21:31:07.740Z,9.80
2022-09-12T21:33:35.306Z,9.70
2022-09-12T21:36:04.676Z,9.80
2022-09-12T21:38:33.196Z,9.70
2022-09-12T21:41:09.790Z,9.80
2022-09-12T21:43:38.072Z,9.80
2022-09-12T21:46:07.263Z,9.80
2022-09-12T21:48:35.375Z,9.80
2022-09-12T21:51:03.696Z,9.80
2022-09-12T21:53:32.193Z,9.80
2022-09-12T21:56:08.194Z,9.70
2022-09-12T21:58:37.010Z,9.70
2022-09-12T22:01:06.080Z,9.80
2022-09-12T22:03:33.894Z,9.80
2022-09-12T22:06:04.094Z,9.70
2022-09-12T22:08:33.252Z,9.80
2022-09-12T22:11:09.534Z,9.80
2022-09-12T22:13:39.514Z,9.80
2022-09-12T22:16:07.973Z,9.80
2022-09-12T22:18:36.911Z,9.80
2022-09-12T22:21:12.600Z,9.80
2022-09-12T22:23:58.395Z,9.80
2022-09-12T22:26:27.368Z,9.80
2022-09-12T22:28:54.848Z,9.80
2022-09-12T22:31:22.891Z,9.80
2022-09-12T22:33:51.737Z,9.80
2022-09-12T22:36:19.314Z,9.80
2022-09-12T22:38:46.817Z,9.80
2022-09-12T22:41:14.612Z,9.80
2022-09-12T22:43:42.257Z,9.80
2022-09-12T22:46:12.353Z,9.80
2022-09-12T22:48:43.088Z,9.80
2022-09-12T22:51:11.025Z,9.80
2022-09-12T22:53:38.694Z,9.80
2022-09-12T22:56:07.266Z,9.80
2022-09-12T22:58:37.534Z,9.80
2022-09-12T23:01:08.417Z,9.80
2022-09-12T23:03:36.592Z,9.80
2022-09-12T23:06:05.328Z,9.80
2022-09-12T23:08:34.963Z,9.80
2022-09-12T23:11:09.686Z,9.80
2022-09-12T23:13:38.150Z,9.80
2022-09-12T23:16:08.295Z,9.80
2022-09-12T23:18:36.645Z,9.80
2022-09-12T23:21:06.990Z,9.80
2022-09-12T23:23:35.251Z,9.80
2022-09-12T23:26:03.441Z,9.80
2022-09-12T23:28:31.122Z,9.80
2022-09-12T23:30:59.856Z,9.80
2022-09-12T23:33:31.132Z,9.70
2022-09-12T23:36:07.306Z,9.80
2022-09-12T23:38:36.923Z,9.80
2022-09-12T23:41:05.154Z,9.90
2022-09-12T23:43:32.968Z,9.80
2022-09-12T23:46:01.673Z,9.90
2022-09-12T23:48:29.265Z,9.90
2022-09-12T23:50:57.091Z,9.80
2022-09-12T23:53:25.439Z,9.80
2022-09-12T23:55:52.888Z,9.90
2022-09-12T23:58:22.545Z,9.70
